Time;durP1;ratioP1;P1;durP2;ratioP2;P2;SDS_P1;SDS_P2;PMS_P1;PMS_P2;Temp;Humidity;BMP_temperature;BMP_pressure;BME280_temperature;BME280_humidity;BME280_pressure;Samples;Min_cycle;Max_cycle;Signal;HPM_P1;HPM_P2
2022/10/14 00:01:19;;;;;;;;;16.25;13.75;;;;;16.25;79.90;101216.50;5117889;27;45338;-78
2022/10/14 00:03:45;;;;;;;;;11.25;9.75;;;;;16.24;79.97;101220.03;5099248;27;45446;-78
2022/10/14 00:06:13;;;;;;;;;15.00;10.00;;;;;16.25;80.07;101213.88;5099101;27;45542;-78
2022/10/14 00:08:39;;;;;;;;;13.50;13.50;;;;;16.26;79.91;101217.34;5117618;27;47412;-77
2022/10/14 00:11:06;;;;;;;;;14.50;10.00;;;;;16.26;79.60;101210.31;5099332;27;45415;-78
2022/10/14 00:13:31;;;;;;;;;12.75;9.75;;;;;16.28;80.11;101209.41;5117770;27;45304;-78
2022/10/14 00:15:56;;;;;;;;;14.25;9.00;;;;;16.29;79.88;101214.59;5099332;27;45270;-78
2022/10/14 00:18:22;;;;;;;;;18.75;17.25;;;;;16.31;79.63;101211.91;5098884;27;54898;-78
2022/10/14 00:20:58;;;;;;;;;16.50;15.50;;;;;16.34;79.87;101206.50;5115948;27;71705;-78
2022/10/14 00:23:24;;;;;;;;;14.00;13.00;;;;;16.35;79.70;101208.22;5117606;27;45454;-78
2022/10/14 00:25:49;;;;;;;;;16.25;13.00;;;;;16.36;79.76;101197.66;5117616;27;45331;-78
2022/10/14 00:28:14;;;;;;;;;14.00;11.25;;;;;16.36;79.27;101196.78;5117529;27;45236;-78
2022/10/14 00:30:40;;;;;;;;;13.25;10.50;;;;;16.38;79.48;101194.91;5099147;27;45351;-78
2022/10/14 00:33:05;;;;;;;;;9.75;6.50;;;;;16.41;79.17;101192.16;5117691;27;68298;-78
2022/10/14 00:35:31;;;;;;;;;9.25;7.00;;;;;16.42;79.35;101188.63;5136821;27;70443;-78
2022/10/14 00:37:57;;;;;;;;;13.00;9.50;;;;;16.42;79.33;101181.59;5137827;27;46350;-78
2022/10/14 00:40:23;;;;;;;;;6.50;6.50;;;;;16.44;79.18;101176.28;5138027;27;45702;-78
2022/10/14 00:42:49;;;;;;;;;12.25;8.00;;;;;16.42;79.02;101165.81;5138016;27;45358;-77
2022/10/14 00:45:19;;;;;;;;;12.75;8.25;;;;;16.43;79.09;101169.28;5136960;27;68819;-78
2022/10/14 00:47:46;;;;;;;;;6.75;5.75;;;;;16.42;79.19;101172.88;5137664;27;46496;-78
2022/10/14 00:50:13;;;;;;;;;7.75;6.00;;;;;16.41;79.28;101161.47;5119074;27;45406;-78
2022/10/14 00:52:39;;;;;;;;;3.75;3.75;;;;;16.42;79.44;101170.22;5118746;27;58658;-78
2022/10/14 00:55:07;;;;;;;;;8.25;4.25;;;;;16.43;79.34;101158.78;5137918;27;45478;-78
2022/10/14 00:57:34;;;;;;;;;4.25;4.00;;;;;16.46;79.12;101158.66;5119078;27;46450;-78
2022/10/14 01:00:12;;;;;;;;;8.25;6.25;;;;;16.45;79.36;101165.69;5137837;27;45732;-78
2022/10/14 01:02:38;;;;;;;;;4.25;4.25;;;;;16.44;79.13;101158.72;5137954;27;45445;-78
2022/10/14 01:05:06;;;;;;;;;6.00;5.00;;;;;16.44;79.22;101163.13;5137580;27;45350;-78
2022/10/14 01:08:07;;;;;;;;;5.25;5.25;;;;;16.43;78.97;101159.63;5118936;27;46349;-78
2022/10/14 01:10:41;;;;;;;;;5.00;5.00;;;;;16.39;79.35;101152.81;5119203;27;45865;-77
2022/10/14 01:13:24;;;;;;;;;5.00;4.50;;;;;16.37;79.38;101146.78;5119240;27;45426;-78
2022/10/14 01:16:13;;;;;;;;;8.00;4.75;;;;;16.38;79.48;101139.75;5122395;27;45756;-78
2022/10/14 01:19:04;;;;;;;;;9.00;7.50;;;;;16.38;79.66;101147.63;5122330;27;46927;-78
2022/10/14 01:21:36;;;;;;;;;8.25;6.00;;;;;16.37;79.63;101140.69;5122367;27;45713;-78
2022/10/14 01:24:20;;;;;;;;;6.00;4.75;;;;;16.39;79.24;101136.22;5122863;27;45422;-78
2022/10/14 01:27:50;;;;;;;;;4.25;3.00;;;;;16.36;79.10;101131.97;5141358;27;45579;-77
2022/10/14 01:30:44;;;;;;;;;4.00;4.00;;;;;16.36;79.75;101126.72;4938006;28;46385;-78
2022/10/14 01:33:15;;;;;;;;;3.50;3.50;;;;;16.35;79.49;101130.25;4861470;29;45905;-78
2022/10/14 01:35:52;;;;;;;;;2.00;2.00;;;;;16.33;79.42;101131.25;4846840;29;45499;-78
2022/10/14 01:38:23;;;;;;;;;3.75;3.00;;;;;16.32;79.54;101137.41;4846774;29;45432;-78
2022/10/14 01:40:54;;;;;;;;;2.25;2.00;;;;;16.32;79.54;101132.16;4846532;29;46631;-78
2022/10/14 01:43:21;;;;;;;;;5.75;2.00;;;;;16.32;79.57;101121.66;4862227;29;45435;-78
2022/10/14 01:45:47;;;;;;;;;2.00;2.00;;;;;16.28;79.84;101125.34;4846857;29;45489;-78
2022/10/14 01:48:16;;;;;;;;;2.75;1.75;;;;;16.24;80.05;101128.13;4863881;29;45388;-77
2022/10/14 01:50:44;;;;;;;;;2.50;1.00;;;;;16.23;80.16;101123.81;4864952;29;47303;-78
2022/10/14 01:53:14;;;;;;;;;1.25;1.25;;;;;16.21;79.88;101124.78;4864904;29;45683;-78
2022/10/14 01:55:42;;;;;;;;;2.00;2.00;;;;;16.19;80.48;101127.47;4865179;29;45533;-78
2022/10/14 01:58:10;;;;;;;;;2.00;2.00;;;;;16.13;80.22;101116.41;4865088;29;45365;-78
2022/10/14 02:00:35;;;;;;;;;3.00;1.00;;;;;16.09;80.95;101118.31;4864719;29;46372;-78
2022/10/14 02:03:01;;;;;;;;;5.75;2.00;;;;;16.09;81.20;101113.06;4871587;28;45460;-78
2022/10/14 02:05:32;;;;;;;;;4.00;3.00;;;;;16.10;80.77;101111.28;4917793;28;65929;-77
2022/10/14 02:08:09;;;;;;;;;2.00;1.75;;;;;16.09;80.95;101105.19;5056151;28;45478;-78
2022/10/14 02:11:05;;;;;;;;;3.50;2.25;;;;;16.08;80.82;101102.63;5090579;27;46677;-78
2022/10/14 02:13:48;;;;;;;;;2.75;1.75;;;;;16.08;81.09;101106.09;5119732;27;45629;-78
2022/10/14 02:16:28;;;;;;;;;2.00;2.00;;;;;16.08;81.34;101102.63;5100982;27;45283;-78
2022/10/14 02:18:59;;;;;;;;;2.50;2.50;;;;;16.08;81.20;101102.63;5119553;27;45345;-78
2022/10/14 02:21:28;;;;;;;;;3.00;2.00;;;;;16.08;81.72;101095.59;5100688;27;45371;-78
2022/10/14 02:23:59;;;;;;;;;2.75;2.00;;;;;16.07;81.54;101104.41;5118468;27;45523;-78
2022/10/14 02:26:25;;;;;;;;;2.00;2.00;;;;;16.03;81.45;101106.34;5101193;27;45397;-78
2022/10/14 02:28:52;;;;;;;;;1.50;1.50;;;;;16.02;81.67;101107.25;5100915;27;45321;-78
2022/10/14 02:31:18;;;;;;;;;2.25;2.00;;;;;16.04;81.72;101102.75;5100505;27;45532;-78
2022/10/14 02:33:47;;;;;;;;;1.50;1.50;;;;;16.04;81.93;101104.53;5099641;27;72907;-78
2022/10/14 02:36:16;;;;;;;;;4.00;2.00;;;;;16.03;81.99;101094.97;5100954;27;45351;-78
2022/10/14 02:38:42;;;;;;;;;2.00;2.00;;;;;16.02;81.88;101091.47;5100765;27;45482;-78
2022/10/14 02:41:11;;;;;;;;;1.50;1.50;;;;;16.02;81.54;101096.75;5117327;27;67799;-78
2022/10/14 02:43:37;;;;;;;;;1.00;1.00;;;;;16.00;82.10;101093.34;5100659;27;45332;-78
2022/10/14 02:46:03;;;;;;;;;3.75;1.00;;;;;16.02;82.18;101090.66;5118975;27;45365;-78
2022/10/14 02:48:28;;;;;;;;;2.00;1.25;;;;;16.04;81.68;101083.53;5139878;27;45316;-78
2022/10/14 02:50:54;;;;;;;;;2.50;2.50;;;;;16.04;81.65;101080.91;5120092;27;74537;-77
2022/10/14 02:53:19;;;;;;;;;3.00;3.00;;;;;16.04;81.65;101080.91;5121127;27;45382;-78
2022/10/14 02:55:45;;;;;;;;;1.00;1.00;;;;;16.05;81.88;101082.63;5139087;27;61338;-78
2022/10/14 02:58:10;;;;;;;;;2.50;1.75;;;;;16.09;81.57;101086.81;5138860;27;45434;-78
2022/10/14 03:00:35;;;;;;;;;2.00;2.00;;;;;16.08;81.96;101084.25;5138271;27;74006;-78
2022/10/14 03:03:01;;;;;;;;;3.25;3.00;;;;;16.07;81.97;101091.28;5138551;27;71956;-78
2022/10/14 03:05:26;;;;;;;;;2.00;1.75;;;;;16.06;82.05;101087.81;5139671;27;45646;-77
2022/10/14 03:07:51;;;;;;;;;2.50;2.50;;;;;16.04;81.92;101083.53;5139654;27;45346;-78
2022/10/14 03:10:17;;;;;;;;;4.50;3.00;;;;;16.04;81.99;101080.91;5138406;27;74051;-78
2022/10/14 03:12:42;;;;;;;;;3.00;2.00;;;;;16.06;81.88;101079.94;5120699;27;45874;-78
2022/10/14 03:15:08;;;;;;;;;4.00;2.50;;;;;16.05;81.77;101088.72;5138468;27;60854;-78
2022/10/14 03:17:35;;;;;;;;;3.00;2.00;;;;;16.05;81.95;101080.84;5139397;27;45360;-78
2022/10/14 03:20:01;;;;;;;;;2.00;2.00;;;;;16.05;81.82;101080.84;5137956;27;46363;-78
2022/10/14 03:22:26;;;;;;;;;3.00;2.00;;;;;16.09;81.85;101078.94;5139312;27;45297;-78
2022/10/14 03:24:51;;;;;;;;;4.00;3.00;;;;;16.11;81.80;101089.38;5139291;27;45275;-78
2022/10/14 03:27:17;;;;;;;;;5.00;2.00;;;;;16.12;81.53;101091.06;5138593;27;63984;-78
2022/10/14 03:29:42;;;;;;;;;2.00;2.00;;;;;16.12;81.55;101091.94;5137750;27;73307;-78
2022/10/14 03:32:07;;;;;;;;;1.50;1.50;;;;;16.12;82.10;101083.19;5138150;27;73136;-78
2022/10/14 03:34:33;;;;;;;;;2.00;2.00;;;;;16.06;82.05;101077.31;5123758;27;64897;-78
2022/10/14 03:36:58;;;;;;;;;3.00;3.00;;;;;16.06;81.97;101081.69;5117830;27;45299;-78
2022/10/14 03:39:24;;;;;;;;;2.25;2.25;;;;;16.07;81.87;101080.78;5117171;27;74385;-77
2022/10/14 03:41:49;;;;;;;;;2.75;1.50;;;;;16.06;81.59;101068.56;5118209;27;45327;-78
2022/10/14 03:44:14;;;;;;;;;3.00;3.00;;;;;16.04;81.83;101066.00;5117097;27;67572;-77
2022/10/14 03:46:40;;;;;;;;;2.75;2.75;;;;;16.05;81.89;101056.38;5117918;27;45450;-78
2022/10/14 03:49:05;;;;;;;;;2.25;2.00;;;;;16.05;81.90;101061.63;5098690;27;74746;-78
2022/10/14 03:51:30;;;;;;;;;4.00;2.00;;;;;16.05;81.65;101066.88;5117857;27;45656;-80
2022/10/14 03:53:56;;;;;;;;;3.25;2.00;;;;;16.06;81.44;101069.44;5098604;27;68287;-78
2022/10/14 03:56:21;;;;;;;;;2.50;2.50;;;;;16.06;81.78;101072.06;5117328;27;61226;-78
2022/10/14 03:58:46;;;;;;;;;1.50;1.50;;;;;16.05;81.51;101067.72;5098293;27;66443;-78
2022/10/14 04:01:12;;;;;;;;;2.00;0.00;;;;;16.06;81.43;101066.81;5117187;27;63891;-78
2022/10/14 04:03:39;;;;;;;;;3.00;2.25;;;;;16.07;81.80;101070.28;5117312;27;60038;-78
2022/10/14 04:06:05;;;;;;;;;1.50;1.50;;;;;16.07;81.50;101072.91;5117808;27;45467;-78
2022/10/14 04:08:30;;;;;;;;;2.00;1.00;;;;;16.07;81.10;101072.91;5117793;27;45886;-78
2022/10/14 04:10:56;;;;;;;;;1.75;1.75;;;;;16.08;81.31;101069.34;5099006;27;54911;-78
2022/10/14 04:13:22;;;;;;;;;2.00;2.00;;;;;16.06;81.16;101071.19;5117408;27;45385;-78
2022/10/14 04:15:47;;;;;;;;;2.00;2.00;;;;;16.04;80.98;101065.16;5117847;27;45326;-77
2022/10/14 04:18:12;;;;;;;;;2.00;2.00;;;;;16.05;80.89;101069.50;5117451;27;46317;-78
2022/10/14 04:20:38;;;;;;;;;1.00;1.00;;;;;16.06;80.70;101063.31;5116528;27;68777;-78
2022/10/14 04:23:03;;;;;;;;;2.00;2.00;;;;;16.07;80.91;101065.03;5099369;27;45454;-78
2022/10/14 04:25:29;;;;;;;;;2.50;2.00;;;;;16.07;81.11;101065.03;5099232;27;45429;-77
2022/10/14 04:27:54;;;;;;;;;1.50;1.50;;;;;16.08;81.02;101061.47;5116677;27;59013;-78
2022/10/14 04:30:20;;;;;;;;;1.00;1.00;;;;;16.11;80.61;101058.72;5116705;27;66850;-78
2022/10/14 04:32:45;;;;;;;;;2.50;1.25;;;;;16.11;80.41;101063.13;5116413;27;67014;-78
2022/10/14 04:35:11;;;;;;;;;3.00;1.00;;;;;16.10;80.84;101069.28;5136755;27;45578;-78
2022/10/14 04:37:36;;;;;;;;;1.00;1.00;;;;;16.11;80.82;101073.63;5137860;27;46924;-78
2022/10/14 04:40:02;;;;;;;;;2.00;2.00;;;;;16.12;80.36;101067.44;5137360;27;62836;-78
2022/10/14 04:42:28;;;;;;;;;1.50;1.00;;;;;16.12;80.42;101059.53;5137697;27;45463;-78
2022/10/14 04:44:53;;;;;;;;;1.25;1.25;;;;;16.13;79.99;101066.53;5137899;27;45443;-78
2022/10/14 04:47:18;;;;;;;;;2.00;1.00;;;;;16.13;79.99;101066.53;5118039;27;76644;-78
2022/10/14 04:49:44;;;;;;;;;1.50;1.00;;;;;16.12;80.23;101064.81;5118468;27;45414;-78
2022/10/14 04:52:09;;;;;;;;;1.00;1.00;;;;;16.11;80.27;101055.25;5137072;27;64539;-78
2022/10/14 04:54:34;;;;;;;;;1.00;1.00;;;;;16.09;79.98;101050.06;5118755;27;61974;-78
2022/10/14 04:57:00;;;;;;;;;2.00;2.00;;;;;16.06;79.86;101048.44;5136503;27;69278;-78
2022/10/14 04:59:25;;;;;;;;;3.50;2.00;;;;;16.05;80.03;101056.38;5137693;27;45388;-78
2022/10/14 05:01:50;;;;;;;;;4.00;1.00;;;;;16.03;80.48;101056.44;5136909;27;67330;-78
2022/10/14 05:04:16;;;;;;;;;2.00;2.00;;;;;16.04;80.13;101050.25;5136821;27;68000;-78
2022/10/14 05:06:41;;;;;;;;;3.50;2.00;;;;;16.04;80.48;101046.78;5137473;27;46603;-78
2022/10/14 05:09:06;;;;;;;;;2.25;2.25;;;;;16.03;80.46;101045.94;5137653;27;45402;-78
2022/10/14 05:11:32;;;;;;;;;2.75;2.00;;;;;16.01;80.14;101047.78;5136495;27;64605;-78
2022/10/14 05:13:57;;;;;;;;;2.75;1.00;;;;;16.01;79.97;101049.53;5119247;27;45379;-78
2022/10/14 05:16:23;;;;;;;;;2.00;2.00;;;;;16.01;79.96;101046.91;5118924;27;46372;-77
2022/10/14 05:18:49;;;;;;;;;2.50;2.50;;;;;16.00;80.19;101040.81;5132141;27;45229;-78
2022/10/14 05:21:14;;;;;;;;;3.00;2.00;;;;;16.01;80.35;101049.53;5118505;27;45510;-78
2022/10/14 05:23:40;;;;;;;;;2.50;2.50;;;;;16.00;80.36;101048.69;5136431;27;45425;-79
2022/10/14 05:26:05;;;;;;;;;2.00;2.00;;;;;16.01;80.24;101037.28;5120376;27;75403;-77
2022/10/14 05:28:31;;;;;;;;;2.00;1.75;;;;;16.01;80.13;101039.03;5131935;27;45354;-79
2022/10/14 05:30:56;;;;;;;;;1.50;1.50;;;;;15.99;80.27;101039.13;5125786;27;67854;-80
2022/10/14 05:33:21;;;;;;;;;2.50;2.00;;;;;15.95;80.40;101034.09;5120354;27;45397;-80
2022/10/14 05:35:47;;;;;;;;;3.00;3.00;;;;;15.91;80.55;101035.16;5136816;27;50817;-80
2022/10/14 05:38:12;;;;;;;;;5.00;2.50;;;;;15.89;80.39;101029.13;5137194;27;45477;-80
2022/10/14 05:40:38;;;;;;;;;2.50;2.50;;;;;15.86;80.93;101028.34;5136767;27;47422;-79
2022/10/14 05:43:03;;;;;;;;;3.00;1.75;;;;;15.83;80.71;101023.22;5136793;27;45471;-80
2022/10/14 05:45:28;;;;;;;;;3.00;2.00;;;;;15.83;81.07;101031.09;5136184;27;74510;-79
2022/10/14 05:47:53;;;;;;;;;3.50;2.00;;;;;15.83;80.75;101033.72;5101543;27;45388;-80
2022/10/14 05:50:19;;;;;;;;;2.50;2.50;;;;;15.80;80.94;101033.88;5115580;27;63413;-79
2022/10/14 05:52:45;;;;;;;;;3.00;3.00;;;;;15.80;81.22;101027.78;5116163;27;45418;-79
2022/10/14 05:55:10;;;;;;;;;3.00;3.00;;;;;15.77;80.87;101034.03;5122074;27;46451;-78
2022/10/14 05:57:35;;;;;;;;;2.50;2.00;;;;;15.80;81.05;101030.41;5136743;27;45443;-79
2022/10/14 06:00:02;;;;;;;;;2.25;2.25;;;;;15.81;80.85;101032.13;5118306;27;61165;-78
2022/10/14 06:02:28;;;;;;;;;8.00;4.00;;;;;15.80;81.36;101035.66;5140499;27;45223;-80
2022/10/14 06:04:53;;;;;;;;;2.25;2.00;;;;;15.80;80.88;101036.50;5121820;27;45447;-80
2022/10/14 06:07:18;;;;;;;;;3.00;3.00;;;;;15.78;80.89;101035.72;5120943;27;73373;-81
2022/10/14 06:09:44;;;;;;;;;2.50;2.50;;;;;15.79;81.20;101040.06;5139210;27;65232;-81
2022/10/14 06:12:09;;;;;;;;;4.00;3.00;;;;;15.81;81.12;101037.38;5140298;27;45533;-81
2022/10/14 06:14:37;;;;;;;;;3.50;3.00;;;;;15.80;81.30;101030.41;5140136;27;46370;-80
2022/10/14 06:17:03;;;;;;;;;3.00;2.75;;;;;15.80;81.13;101033.88;5122220;27;45537;-80
2022/10/14 06:19:30;;;;;;;;;5.00;3.00;;;;;15.79;81.03;101037.44;5121744;27;45369;-80
2022/10/14 06:21:55;;;;;;;;;4.00;3.00;;;;;15.80;80.88;101043.53;5139680;27;45365;-80
2022/10/14 06:24:20;;;;;;;;;5.00;3.75;;;;;15.81;81.16;101047.88;5138976;27;76486;-81
2022/10/14 06:26:47;;;;;;;;;4.50;2.75;;;;;15.84;80.80;101048.56;5140156;27;45309;-80
2022/10/14 06:29:12;;;;;;;;;2.00;2.00;;;;;15.85;80.55;101052.03;5140309;27;45372;-80
2022/10/14 06:31:38;;;;;;;;;3.75;3.00;;;;;15.86;80.87;101049.34;5140167;27;45305;-80
2022/10/14 06:34:04;;;;;;;;;5.25;4.50;;;;;15.89;80.50;101045.72;5120962;27;45988;-80
2022/10/14 06:36:30;;;;;;;;;5.25;4.00;;;;;15.95;80.41;101036.72;5118160;27;45577;-80
2022/10/14 06:38:55;;;;;;;;;6.00;4.50;;;;;15.97;80.37;101041.00;5139719;27;45374;-80
2022/10/14 06:41:21;;;;;;;;;4.50;4.50;;;;;15.98;80.28;101047.91;5136937;27;45504;-80
2022/10/14 06:43:46;;;;;;;;;7.25;5.00;;;;;15.97;80.10;101043.59;5132690;27;46062;-81
2022/10/14 06:46:12;;;;;;;;;4.50;4.50;;;;;15.99;80.24;101038.25;5122569;27;45460;-81
2022/10/14 06:48:37;;;;;;;;;5.00;5.00;;;;;16.01;80.05;101041.66;5119794;27;60257;-81
2022/10/14 06:51:03;;;;;;;;;4.50;4.50;;;;;15.99;80.20;101041.75;5139522;27;45506;-80
2022/10/14 06:53:28;;;;;;;;;8.50;4.00;;;;;15.99;80.09;101049.63;5139582;27;46479;-80
2022/10/14 06:56:01;;;;;;;;;9.50;5.00;;;;;16.02;79.94;101051.25;5138394;27;45418;-81
2022/10/14 06:58:27;;;;;;;;;2.00;2.00;;;;;16.02;80.02;101032.88;5130276;27;45281;-81
2022/10/14 07:00:52;;;;;;;;;4.50;4.00;;;;;16.01;80.12;101045.16;5118781;27;45573;-80
2022/10/14 07:03:17;;;;;;;;;6.75;4.00;;;;;16.05;79.80;101054.59;5133032;27;46814;-80
2022/10/14 07:05:43;;;;;;;;;4.75;4.25;;;;;16.05;79.73;101054.59;5127022;27;45357;-80
2022/10/14 07:08:08;;;;;;;;;6.50;5.00;;;;;16.08;79.35;101052.75;5103030;27;45437;-80
2022/10/14 07:10:34;;;;;;;;;5.00;4.00;;;;;16.11;79.27;101060.50;5104795;27;64644;-80
2022/10/14 07:12:59;;;;;;;;;4.25;4.25;;;;;16.15;79.47;101059.41;5099055;27;45368;-80
2022/10/14 07:15:24;;;;;;;;;3.50;3.00;;;;;16.17;79.17;101063.66;5118449;27;45567;-80
2022/10/14 07:17:50;;;;;;;;;3.00;3.00;;;;;16.19;78.80;101060.97;5103735;27;58023;-80
2022/10/14 07:20:15;;;;;;;;;4.50;3.00;;;;;16.20;78.88;101071.41;5138396;27;45334;-80
2022/10/14 07:22:41;;;;;;;;;4.00;2.75;;;;;16.21;78.58;101078.38;5128459;27;46128;-79
2022/10/14 07:25:06;;;;;;;;;4.50;3.00;;;;;16.22;78.49;101074.81;5118354;27;45363;-79
2022/10/14 07:27:32;;;;;;;;;5.75;3.00;;;;;16.22;78.64;101074.81;5137275;27;45444;-78
2022/10/14 07:29:57;;;;;;;;;1.25;1.25;;;;;16.22;78.65;101080.06;5138993;27;51061;-80
2022/10/14 07:32:22;;;;;;;;;2.25;2.00;;;;;16.26;78.37;101078.97;5136059;27;64509;-79
2022/10/14 07:34:48;;;;;;;;;3.00;3.00;;;;;16.31;78.45;101078.78;5132733;27;69889;-80
2022/10/14 07:37:13;;;;;;;;;1.25;1.00;;;;;16.34;77.00;101085.66;5134790;27;65956;-79
2022/10/14 07:39:39;;;;;;;;;4.00;1.50;;;;;16.34;77.02;101090.91;5137760;27;45495;-80
2022/10/14 07:42:04;;;;;;;;;1.25;1.25;;;;;16.33;76.64;101090.06;5123388;27;45501;-80
2022/10/14 07:44:30;;;;;;;;;1.00;1.00;;;;;16.36;76.78;101094.31;5137566;27;59309;-79
2022/10/14 07:46:55;;;;;;;;;3.00;2.00;;;;;16.39;76.40;101089.75;5137867;27;45307;-79
2022/10/14 07:49:21;;;;;;;;;2.00;1.00;;;;;16.42;76.84;101094.03;5126998;27;45560;-78
2022/10/14 07:51:47;;;;;;;;;1.00;1.00;;;;;16.41;76.05;101102.84;5112890;27;45412;-81
2022/10/14 07:54:19;;;;;;;;;1.00;1.00;;;;;16.38;76.33;101100.34;5119726;27;45759;-79
2022/10/14 07:56:45;;;;;;;;;1.00;1.00;;;;;16.36;75.94;101097.81;5118045;27;45295;-79
2022/10/14 07:59:11;;;;;;;;;3.00;1.00;;;;;16.37;75.69;101101.28;5099732;27;45406;-79
2022/10/14 08:01:37;;;;;;;;;1.50;1.00;;;;;16.37;75.96;101103.91;5117623;27;46876;-80
2022/10/14 08:04:02;;;;;;;;;2.00;2.00;;;;;16.35;75.81;101117.13;5117327;27;45312;-80
2022/10/14 08:06:28;;;;;;;;;2.25;1.75;;;;;16.34;75.84;101122.44;5118056;27;45308;-80
2022/10/14 08:08:53;;;;;;;;;3.00;1.25;;;;;16.31;75.95;101120.81;5117801;27;45608;-79
2022/10/14 08:11:21;;;;;;;;;1.50;1.00;;;;;16.33;75.75;101121.59;5117658;27;46071;-79
2022/10/14 08:13:47;;;;;;;;;2.00;1.00;;;;;16.32;75.83;101113.78;5117611;27;45733;-79
2022/10/14 08:16:30;;;;;;;;;2.25;2.25;;;;;16.29;75.87;101119.16;5117644;27;45375;-80
2022/10/14 08:18:57;;;;;;;;;1.50;1.00;;;;;16.25;75.43;101121.06;5098976;27;45613;-80
2022/10/14 08:21:23;;;;;;;;;2.00;2.00;;;;;16.21;76.02;101120.41;5102252;27;47426;-80
2022/10/14 08:23:48;;;;;;;;;3.25;1.25;;;;;16.20;76.00;101129.19;5078605;27;45317;-79
2022/10/14 08:26:22;;;;;;;;;1.00;1.00;;;;;16.20;76.00;101126.56;5097075;27;45344;-80
2022/10/14 08:28:48;;;;;;;;;1.00;1.00;;;;;16.21;76.23;101130.03;5096127;27;45308;-79
2022/10/14 08:31:14;;;;;;;;;1.50;1.00;;;;;16.19;75.62;101119.59;5096784;27;46124;-79
2022/10/14 08:33:40;;;;;;;;;2.25;2.00;;;;;16.16;75.62;101125.00;5077622;27;45510;-79
2022/10/14 08:36:06;;;;;;;;;2.25;2.00;;;;;16.14;75.88;101128.59;5095978;27;45601;-79
2022/10/14 08:38:31;;;;;;;;;3.00;2.00;;;;;16.13;76.29;101129.53;5096653;27;45275;-79
2022/10/14 08:40:59;;;;;;;;;2.25;2.25;;;;;16.11;75.98;101129.59;5095486;27;74431;-79
2022/10/14 08:43:47;;;;;;;;;2.25;1.75;;;;;16.12;76.67;101126.06;5096524;27;45817;-79
2022/10/14 08:46:24;;;;;;;;;6.50;2.00;;;;;16.16;76.96;101119.75;5080735;27;45441;-80
2022/10/14 08:48:54;;;;;;;;;2.00;2.00;;;;;16.17;76.64;101128.47;5098216;27;45316;-78
2022/10/14 08:51:20;;;;;;;;;1.00;1.00;;;;;16.17;76.46;101129.31;5095627;27;46903;-79
2022/10/14 08:53:49;;;;;;;;;2.00;1.00;;;;;16.20;76.93;101121.31;5097297;27;45360;-79
2022/10/14 08:56:16;;;;;;;;;0.00;0.00;;;;;16.20;77.08;101126.56;5098695;27;45317;-80
2022/10/14 08:58:45;;;;;;;;;4.50;1.00;;;;;16.23;76.93;101131.69;5098143;27;49448;-80
2022/10/14 09:01:33;;;;;;;;;2.50;1.00;;;;;16.24;76.44;101125.50;5115424;27;47481;-80
2022/10/14 09:04:04;;;;;;;;;2.00;2.00;;;;;16.28;76.38;101123.56;5098614;27;45621;-79
2022/10/14 09:06:32;;;;;;;;;1.50;0.00;;;;;16.30;76.89;101121.72;5117084;27;45475;-79
2022/10/14 09:09:13;;;;;;;;;3.00;3.00;;;;;16.35;76.67;101117.13;5098095;27;45410;-80
2022/10/14 09:11:44;;;;;;;;;2.50;2.00;;;;;16.42;76.44;101117.69;5093122;27;46316;-80
2022/10/14 09:14:17;;;;;;;;;3.00;1.75;;;;;16.44;76.72;101113.22;5113651;27;45469;-80
2022/10/14 09:16:45;;;;;;;;;2.50;1.50;;;;;16.43;76.05;101109.72;5115219;27;45424;-80
2022/10/14 09:19:26;;;;;;;;;2.00;2.00;;;;;16.47;76.80;101115.66;5098712;27;45243;-79
2022/10/14 09:21:54;;;;;;;;;3.00;2.00;;;;;16.56;77.11;101109.13;5117537;27;47240;-79
2022/10/14 09:24:23;;;;;;;;;3.25;1.50;;;;;16.62;76.28;101098.31;5137345;27;45643;-79
2022/10/14 09:26:55;;;;;;;;;2.50;1.75;;;;;16.65;75.86;101098.19;5118892;27;45435;-80
2022/10/14 09:29:27;;;;;;;;;2.00;2.00;;;;;16.65;75.83;101103.44;5137482;27;45421;-79
2022/10/14 09:31:56;;;;;;;;;3.00;2.00;;;;;16.62;75.98;101099.19;5136016;27;47341;-79
2022/10/14 09:34:33;;;;;;;;;2.00;1.75;;;;;16.64;75.60;101106.97;5105754;27;45282;-80
2022/10/14 09:37:11;;;;;;;;;1.00;1.00;;;;;16.57;75.09;101095.94;5101369;27;45450;-79
2022/10/14 09:39:39;;;;;;;;;3.00;1.00;;;;;16.58;75.78;101088.88;5101608;27;45429;-80
2022/10/14 09:42:12;;;;;;;;;4.00;2.25;;;;;16.57;75.18;101097.72;5101436;27;46122;-79
2022/10/14 09:44:37;;;;;;;;;1.50;1.50;;;;;16.54;75.59;101097.84;5101417;27;45769;-79
2022/10/14 09:47:04;;;;;;;;;3.00;1.00;;;;;16.56;75.27;101093.38;5100528;27;53281;-80
2022/10/14 09:49:38;;;;;;;;;2.00;2.00;;;;;16.60;75.75;101090.53;5100495;27;65247;-79
2022/10/14 09:52:04;;;;;;;;;6.00;1.50;;;;;16.63;75.30;101084.25;5119625;27;46310;-79
2022/10/14 09:54:30;;;;;;;;;2.75;1.00;;;;;16.65;75.40;101082.41;5101238;27;45250;-79
2022/10/14 09:57:06;;;;;;;;;1.50;1.00;;;;;16.67;75.66;101095.47;5101479;27;45383;-79
2022/10/14 09:59:33;;;;;;;;;3.00;1.00;;;;;16.71;75.19;101094.41;5101050;27;45320;-79
2022/10/14 10:02:01;;;;;;;;;1.00;1.00;;;;;16.74;75.00;101110.03;5101111;27;46420;-79
2022/10/14 10:04:46;;;;;;;;;1.25;1.25;;;;;16.77;75.10;101101.97;5100986;27;45474;-79
2022/10/14 10:07:31;;;;;;;;;2.00;2.00;;;;;16.85;74.93;101099.88;5119950;27;45355;-80
2022/10/14 10:09:59;;;;;;;;;1.75;1.25;;;;;16.88;75.01;101094.44;5119280;27;45397;-80
2022/10/14 10:12:32;;;;;;;;;1.25;1.00;;;;;16.95;75.06;101101.09;5118725;27;46295;-79
2022/10/14 10:15:02;;;;;;;;;1.75;1.00;;;;;17.03;74.64;101092.81;5118918;27;45408;-80
2022/10/14 10:17:31;;;;;;;;;2.00;2.00;;;;;17.11;74.57;101089.81;5119450;27;45240;-79
2022/10/14 10:20:17;;;;;;;;;1.75;1.75;;;;;17.13;74.22;101087.97;5119321;27;45358;-79
2022/10/14 10:22:43;;;;;;;;;2.75;1.00;;;;;17.10;73.58;101073.19;5119050;27;46252;-80
2022/10/14 10:25:09;;;;;;;;;2.00;2.00;;;;;17.13;73.61;101072.19;5100834;27;45273;-80
2022/10/14 10:27:38;;;;;;;;;2.00;2.00;;;;;17.18;73.74;101073.66;5100741;27;45313;-80
2022/10/14 10:30:27;;;;;;;;;2.75;1.00;;;;;17.31;73.89;101068.59;5118724;27;45614;-79
2022/10/14 10:33:08;;;;;;;;;1.75;1.75;;;;;17.47;73.70;101075.69;5118964;27;45398;-79
2022/10/14 10:36:04;;;;;;;;;0.75;0.75;;;;;17.60;72.40;101072.31;5119024;27;45467;-79
2022/10/14 10:38:34;;;;;;;;;3.50;2.25;;;;;17.71;72.07;101065.66;5118926;27;45425;-80
2022/10/14 10:41:14;;;;;;;;;2.00;1.00;;;;;17.81;71.61;101061.56;5113392;27;45521;-79
2022/10/14 10:44:10;;;;;;;;;1.00;1.00;;;;;17.86;71.42;101059.56;5118403;27;46229;-79
2022/10/14 10:46:53;;;;;;;;;3.00;1.00;;;;;17.93;70.34;101053.06;5118445;27;45464;-79
2022/10/14 10:49:37;;;;;;;;;1.25;1.25;;;;;17.90;70.20;101053.22;5100900;27;45476;-80
2022/10/14 10:52:11;;;;;;;;;1.00;1.00;;;;;17.90;70.14;101053.22;5129436;27;45312;-80
2022/10/14 10:54:46;;;;;;;;;0.75;0.75;;;;;17.95;69.09;101050.34;5120706;27;46262;-80
2022/10/14 10:57:28;;;;;;;;;1.00;1.00;;;;;17.97;69.11;101032.66;5120514;27;45499;-80
2022/10/14 11:00:00;;;;;;;;;1.00;0.00;;;;;17.97;68.12;101035.28;5118883;27;45327;-80
2022/10/14 11:02:47;;;;;;;;;1.00;1.00;;;;;17.93;68.02;101031.97;5118946;27;45492;-79
2022/10/14 11:05:43;;;;;;;;;1.50;0.25;;;;;17.86;67.80;101041.16;5139156;27;46438;-80
2022/10/14 11:14:45;;;;;;;;;0.00;0.00;;;;;17.60;67.70;101027.56;5130422;27;45563;-80
2022/10/14 11:17:16;;;;;;;;;0.00;0.00;;;;;17.53;67.35;101033.25;5138962;27;46387;-79
2022/10/14 11:20:21;;;;;;;;;0.00;0.00;;;;;17.46;67.67;101021.34;5137019;27;45721;-79
2022/10/14 11:22:46;;;;;;;;;0.00;0.00;;;;;17.42;67.71;101013.63;5139211;27;45343;-79
2022/10/14 11:25:24;;;;;;;;;0.00;0.00;;;;;17.47;68.41;101002.84;5138819;27;45229;-78
2022/10/14 11:28:01;;;;;;;;;0.00;0.00;;;;;17.55;68.29;101002.44;5130441;27;46321;-78
2022/10/14 11:30:42;;;;;;;;;0.00;0.00;;;;;17.60;68.61;101003.03;5100809;27;45673;-78
2022/10/14 11:33:29;;;;;;;;;0.00;0.00;;;;;17.60;69.22;101001.25;5100472;27;45275;-77
2022/10/14 11:36:37;;;;;;;;;0.00;0.00;;;;;17.57;69.05;100996.19;5122172;27;45394;-78
2022/10/14 11:39:27;;;;;;;;;0.75;0.00;;;;;17.49;70.39;100979.09;5032627;28;45885;-78
2022/10/14 11:42:10;;;;;;;;;0.00;0.00;;;;;17.41;70.44;100980.34;5052934;28;45670;-78